createdAt,value
2019-04-27T00:01:24.469Z,10.60
2019-04-27T00:04:19.312Z,10.70
2019-04-27T00:06:49.106Z,10.80
2019-04-27T00:09:29.118Z,10.90
2019-04-27T00:12:05.584Z,11.00
2019-04-27T00:14:36.781Z,11.00
2019-04-27T00:17:43.559Z,10.90
2019-04-27T00:20:26.507Z,10.90
2019-04-27T00:22:59.275Z,10.80
2019-04-27T00:25:29.099Z,10.80
2019-04-27T00:27:58.871Z,10.70
2019-04-27T00:30:28.619Z,10.60
2019-04-27T00:32:58.564Z,10.40
2019-04-27T00:35:34.301Z,10.30
2019-04-27T00:38:29.310Z,10.10
2019-04-27T00:41:08.394Z,10.00
2019-04-27T00:43:38.226Z,10.00
2019-04-27T00:46:27.118Z,9.90
2019-04-27T00:48:56.900Z,9.80
2019-04-27T00:51:28.402Z,9.80
2019-04-27T00:53:58.127Z,9.80
2019-04-27T00:56:39.827Z,9.80
2019-04-27T00:59:33.030Z,9.80
2019-04-27T01:02:18.368Z,9.80
2019-04-27T01:04:48.295Z,9.80
2019-04-27T01:07:18.106Z,9.80
2019-04-27T01:09:47.810Z,9.80
2019-04-27T01:12:19.031Z,9.70
2019-04-27T01:14:48.753Z,9.60
2019-04-27T01:17:18.898Z,9.60
2019-04-27T01:19:49.372Z,9.60
2019-04-27T01:22:20.259Z,9.60
2019-04-27T01:24:49.947Z,9.70
2019-04-27T01:27:34.408Z,9.80
2019-04-27T01:30:08.740Z,9.90
2019-04-27T01:32:39.226Z,10.00
2019-04-27T01:35:09.118Z,10.10
2019-04-27T01:37:38.876Z,10.20
2019-04-27T01:40:09.813Z,10.30
2019-04-27T01:42:39.714Z,10.40
2019-04-27T01:45:09.566Z,10.50
2019-04-27T01:47:39.275Z,10.50
2019-04-27T01:50:09.265Z,10.60
2019-04-27T01:52:39.023Z,10.60
2019-04-27T01:55:09.074Z,10.70
2019-04-27T01:57:38.894Z,10.70
2019-04-27T02:00:29.467Z,10.80
2019-04-27T02:03:01.208Z,10.70
2019-04-27T02:05:35.502Z,10.80
2019-04-27T02:08:05.823Z,10.90
2019-04-27T02:10:35.660Z,10.90
2019-04-27T02:13:05.482Z,10.90
2019-04-27T02:15:35.251Z,11.00
2019-04-27T02:18:05.379Z,11.00
2019-04-27T02:20:35.145Z,11.10
2019-04-27T02:23:04.967Z,11.00
2019-04-27T02:25:34.750Z,11.00
2019-04-27T02:28:12.624Z,11.00
2019-04-27T02:31:02.422Z,10.90
2019-04-27T02:33:41.811Z,10.90
2019-04-27T02:36:14.829Z,10.90
2019-04-27T02:38:43.125Z,10.90
2019-04-27T02:41:12.883Z,10.80
2019-04-27T02:43:50.843Z,10.80
2019-04-27T02:46:20.676Z,10.90
2019-04-27T02:48:59.346Z,10.80
2019-04-27T02:51:29.906Z,10.90
2019-04-27T02:54:00.641Z,10.90
2019-04-27T02:56:31.363Z,10.90
2019-04-27T02:59:01.195Z,10.80
2019-04-27T03:01:33.448Z,10.80
2019-04-27T03:04:03.255Z,10.80
2019-04-27T03:06:33.152Z,10.80
2019-04-27T03:09:03.040Z,10.80
2019-04-27T03:11:54.218Z,10.80
2019-04-27T03:14:47.069Z,10.80
2019-04-27T03:17:39.557Z,10.80
2019-04-27T03:20:30.010Z,10.90
2019-04-27T03:23:02.970Z,10.80
2019-04-27T03:25:51.896Z,10.80
2019-04-27T03:28:21.766Z,10.80
2019-04-27T03:30:52.563Z,10.80
2019-04-27T03:33:22.930Z,10.80
2019-04-27T03:35:53.207Z,10.80
2019-04-27T03:38:23.335Z,10.80
2019-04-27T03:40:53.388Z,10.80
2019-04-27T03:43:24.703Z,10.70
2019-04-27T03:45:54.984Z,10.80
2019-04-27T03:48:24.724Z,10.80
2019-04-27T03:51:12.419Z,10.80
2019-04-27T03:53:57.340Z,10.80
2019-04-27T03:56:34.288Z,10.80
2019-04-27T03:59:09.833Z,10.80
2019-04-27T04:01:39.740Z,11.00
2019-04-27T04:04:10.717Z,11.00
2019-04-27T04:06:40.617Z,11.00
2019-04-27T04:09:11.768Z,11.10
2019-04-27T04:11:54.442Z,11.10
2019-04-27T04:14:24.638Z,11.10
2019-04-27T04:17:01.683Z,11.10
2019-04-27T04:19:31.517Z,11.10
2019-04-27T04:22:00.027Z,11.10
2019-04-27T04:24:31.842Z,11.10
2019-04-27T04:27:01.469Z,11.10
2019-04-27T04:29:31.162Z,11.10
2019-04-27T04:32:00.912Z,11.10
2019-04-27T04:34:30.973Z,11.00
2019-04-27T04:37:00.742Z,11.00
2019-04-27T04:39:30.525Z,10.90
2019-04-27T04:42:05.923Z,10.80
2019-04-27T04:45:00.988Z,10.90
2019-04-27T04:47:49.987Z,10.80
2019-04-27T04:50:22.439Z,10.70
2019-04-27T04:52:51.246Z,10.70
2019-04-27T04:55:21.092Z,10.70
2019-04-27T04:57:51.008Z,10.70
2019-04-27T05:00:20.837Z,10.70
2019-04-27T05:02:50.628Z,10.70
2019-04-27T05:05:20.370Z,10.70
2019-04-27T05:07:50.072Z,10.60
2019-04-27T05:10:19.914Z,10.60
2019-04-27T05:12:50.458Z,10.60
2019-04-27T05:15:20.730Z,10.50
2019-04-27T05:17:51.731Z,10.50
2019-04-27T05:20:30.687Z,10.50
2019-04-27T05:23:00.378Z,10.50
2019-04-27T05:25:31.046Z,10.50
2019-04-27T05:28:00.823Z,10.50
2019-04-27T05:30:30.501Z,10.50
2019-04-27T05:33:00.279Z,10.40
2019-04-27T05:35:30.003Z,10.40
2019-04-27T05:38:02.508Z,10.40
2019-04-27T05:40:31.218Z,10.40
2019-04-27T05:43:00.974Z,10.40
2019-04-27T05:46:10.867Z,10.40
2019-04-27T05:48:40.014Z,10.40
2019-04-27T05:51:09.726Z,10.40
2019-04-27T05:53:39.644Z,10.40
2019-04-27T05:56:09.529Z,10.40
2019-04-27T05:58:39.389Z,10.40
2019-04-27T06:01:10.894Z,10.50
2019-04-27T06:03:40.526Z,10.50
2019-04-27T06:06:10.371Z,10.50
2019-04-27T06:08:40.131Z,10.50
2019-04-27T06:11:11.517Z,10.50
2019-04-27T06:13:41.202Z,10.50
2019-04-27T06:16:10.964Z,10.50
2019-04-27T06:18:40.661Z,10.50
2019-04-27T06:21:10.358Z,10.60
2019-04-27T06:23:40.111Z,10.60
2019-04-27T06:26:11.788Z,10.60
2019-04-27T06:28:41.216Z,10.70
2019-04-27T06:31:11.010Z,10.70
2019-04-27T06:33:40.710Z,10.70
2019-04-27T06:36:10.482Z,10.70
2019-04-27T06:38:40.202Z,10.70
2019-04-27T06:41:10.212Z,10.80
2019-04-27T06:43:40.674Z,10.80
2019-04-27T06:46:10.568Z,10.80
2019-04-27T06:48:40.534Z,10.90
2019-04-27T06:51:10.294Z,10.90
2019-04-27T06:53:40.062Z,11.00
2019-04-27T06:56:10.002Z,11.10
2019-04-27T06:58:40.746Z,11.30
2019-04-27T07:01:11.004Z,11.60
2019-04-27T07:03:40.871Z,11.80
2019-04-27T07:06:10.546Z,12.00
2019-04-27T07:08:40.406Z,12.00
2019-04-27T07:11:11.564Z,12.10
2019-04-27T07:13:41.545Z,11.90
2019-04-27T07:16:11.325Z,11.80
2019-04-27T07:18:41.088Z,11.70
2019-04-27T07:21:18.883Z,11.60
2019-04-27T07:23:59.055Z,11.60
2019-04-27T07:26:30.331Z,11.60
2019-04-27T07:29:00.427Z,11.60
2019-04-27T07:31:31.820Z,11.70
2019-04-27T07:34:13.748Z,11.80
2019-04-27T07:36:43.442Z,12.00
2019-04-27T07:39:13.120Z,12.20
2019-04-27T07:41:42.926Z,12.30
2019-04-27T07:44:35.935Z,12.40
2019-04-27T07:47:17.094Z,12.30
2019-04-27T07:49:47.026Z,12.60
2019-04-27T07:52:18.946Z,12.80
2019-04-27T07:54:49.201Z,12.80
2019-04-27T07:57:19.862Z,12.50
2019-04-27T07:59:50.325Z,12.30
2019-04-27T08:02:21.155Z,12.20
2019-04-27T08:04:51.056Z,12.10
2019-04-27T08:07:20.758Z,12.10
2019-04-27T08:09:50.530Z,12.40
2019-04-27T08:12:20.882Z,12.70
2019-04-27T08:14:50.792Z,13.00
2019-04-27T08:17:20.473Z,13.00
2019-04-27T08:19:50.267Z,13.00
2019-04-27T08:22:20.924Z,12.90
2019-04-27T08:24:50.647Z,13.10
2019-04-27T08:27:26.626Z,13.20
2019-04-27T08:30:10.224Z,13.40
2019-04-27T08:32:42.426Z,13.60
2019-04-27T08:35:13.630Z,13.80
2019-04-27T08:37:43.454Z,13.80
2019-04-27T08:40:13.618Z,14.00
2019-04-27T08:42:43.467Z,14.00
2019-04-27T08:45:13.342Z,14.10
2019-04-27T08:47:43.111Z,14.40
2019-04-27T08:50:13.942Z,14.70
2019-04-27T08:52:43.638Z,14.90
2019-04-27T08:55:14.086Z,15.10
2019-04-27T08:57:43.802Z,15.00
2019-04-27T09:00:13.736Z,14.60
2019-04-27T09:02:47.077Z,14.10
2019-04-27T09:05:16.620Z,13.70
2019-04-27T09:07:56.670Z,13.60
2019-04-27T09:10:34.691Z,13.80
2019-04-27T09:13:11.315Z,14.00
2019-04-27T09:15:54.971Z,14.00
2019-04-27T09:18:26.967Z,14.00
2019-04-27T09:20:59.013Z,13.90
2019-04-27T09:23:28.732Z,13.80
2019-04-27T09:25:59.460Z,13.90
2019-04-27T09:28:30.742Z,13.80
2019-04-27T09:31:00.502Z,13.90
2019-04-27T09:33:30.283Z,13.90
2019-04-27T09:35:59.995Z,13.80
2019-04-27T09:38:29.859Z,13.80
2019-04-27T09:40:59.643Z,13.90
2019-04-27T09:43:29.390Z,14.20
2019-04-27T09:45:59.163Z,14.30
2019-04-27T09:48:28.905Z,14.40
2019-04-27T09:50:58.618Z,14.30
2019-04-27T09:53:28.407Z,14.30
2019-04-27T09:55:58.096Z,14.40
2019-04-27T09:58:27.930Z,14.60
2019-04-27T10:00:57.702Z,14.30
2019-04-27T10:03:27.410Z,14.20
2019-04-27T10:05:57.210Z,14.20
2019-04-27T10:08:27.041Z,13.70
2019-04-27T10:10:56.812Z,13.40
2019-04-27T10:13:27.675Z,13.00
2019-04-27T10:15:58.439Z,12.90
2019-04-27T10:18:29.201Z,13.00
2019-04-27T10:21:02.073Z,13.10
2019-04-27T10:23:30.385Z,13.30
2019-04-27T10:26:00.222Z,13.60
2019-04-27T10:28:29.910Z,13.50
2019-04-27T10:30:59.670Z,13.30
2019-04-27T10:33:30.829Z,13.40
2019-04-27T10:36:00.609Z,13.40
2019-04-27T10:38:30.457Z,13.30
2019-04-27T10:41:00.290Z,13.30
2019-04-27T10:43:29.986Z,13.50
2019-04-27T10:45:59.763Z,13.60
2019-04-27T10:48:29.447Z,13.80
2019-04-27T10:50:59.210Z,13.90
2019-04-27T10:53:28.971Z,14.00
2019-04-27T10:55:58.668Z,14.00
2019-04-27T10:58:28.366Z,14.10
2019-04-27T11:00:59.819Z,14.10
2019-04-27T11:03:47.542Z,14.30
2019-04-27T11:06:38.985Z,14.40
2019-04-27T11:09:10.415Z,14.50
2019-04-27T11:11:41.595Z,14.40
2019-04-27T11:14:11.503Z,13.90
2019-04-27T11:16:41.334Z,13.40
2019-04-27T11:19:11.174Z,13.00
2019-04-27T11:21:40.878Z,13.10
2019-04-27T11:24:10.625Z,13.40
2019-04-27T11:26:40.422Z,13.30
2019-04-27T11:29:10.186Z,13.00
2019-04-27T11:31:40.830Z,13.00
2019-04-27T11:34:11.478Z,13.20
2019-04-27T11:36:50.753Z,13.40
2019-04-27T11:39:21.247Z,13.40
2019-04-27T11:41:51.109Z,13.50
2019-04-27T11:44:20.833Z,13.80
2019-04-27T11:46:50.604Z,13.90
2019-04-27T11:49:20.427Z,14.10
2019-04-27T11:51:50.171Z,14.20
2019-04-27T11:54:19.947Z,14.20
2019-04-27T11:56:49.829Z,14.30
2019-04-27T11:59:19.656Z,14.70
2019-04-27T12:01:49.422Z,14.80
2019-04-27T12:04:19.110Z,15.00
2019-04-27T12:06:48.975Z,15.30
2019-04-27T12:09:18.658Z,15.50
2019-04-27T12:11:55.884Z,15.00
2019-04-27T12:14:26.842Z,14.70
2019-04-27T12:16:56.615Z,14.40
2019-04-27T12:19:26.926Z,14.20
2019-04-27T12:21:56.762Z,13.90
2019-04-27T12:24:26.792Z,14.00
2019-04-27T12:27:31.263Z,13.90
2019-04-27T12:30:19.962Z,13.50
2019-04-27T12:32:49.773Z,12.50
2019-04-27T12:35:19.838Z,11.60
2019-04-27T12:37:49.678Z,11.30
2019-04-27T12:40:20.498Z,11.20
2019-04-27T12:42:50.283Z,11.30
2019-04-27T12:45:20.302Z,11.60
2019-04-27T12:47:50.094Z,12.00
2019-04-27T12:50:21.041Z,12.40
2019-04-27T12:52:53.877Z,12.60
2019-04-27T12:55:39.582Z,12.80
2019-04-27T12:58:26.425Z,13.00
2019-04-27T13:00:56.850Z,13.00
2019-04-27T13:03:26.683Z,13.10
2019-04-27T13:05:56.526Z,13.30
2019-04-27T13:08:26.272Z,13.40
2019-04-27T13:10:57.419Z,13.40
2019-04-27T13:13:28.406Z,13.30
2019-04-27T13:15:58.086Z,13.20
2019-04-27T13:18:27.787Z,13.20
2019-04-27T13:20:57.562Z,13.40
2019-04-27T13:23:28.579Z,13.60
2019-04-27T13:25:58.497Z,13.60
2019-04-27T13:28:29.222Z,13.70
2019-04-27T13:30:58.929Z,13.80
2019-04-27T13:33:28.818Z,14.00
2019-04-27T13:35:58.603Z,14.10
2019-04-27T13:38:28.457Z,13.80
2019-04-27T13:41:06.631Z,13.50
2019-04-27T13:43:37.063Z,13.30
2019-04-27T13:46:26.771Z,13.20
2019-04-27T13:49:17.644Z,13.20
2019-04-27T13:52:02.779Z,13.30
2019-04-27T13:54:32.472Z,13.30
2019-04-27T13:57:02.375Z,13.50
2019-04-27T13:59:32.062Z,13.40
2019-04-27T14:02:03.670Z,13.40
2019-04-27T14:04:33.468Z,13.40
2019-04-27T14:07:03.397Z,13.60
2019-04-27T14:09:33.236Z,13.80
2019-04-27T14:12:10.043Z,13.90
2019-04-27T14:14:39.734Z,13.90
2019-04-27T14:17:09.813Z,13.80
2019-04-27T14:19:39.676Z,13.60
2019-04-27T14:22:09.398Z,13.40
2019-04-27T14:24:42.384Z,13.10
2019-04-27T14:27:12.171Z,12.50
2019-04-27T14:29:41.872Z,12.10
2019-04-27T14:32:11.638Z,11.80
2019-04-27T14:34:41.323Z,11.80
2019-04-27T14:37:11.009Z,12.10
2019-04-27T14:39:40.696Z,12.40
2019-04-27T14:42:10.478Z,12.50
2019-04-27T14:44:40.243Z,12.60
2019-04-27T14:47:10.022Z,12.50
2019-04-27T14:49:39.715Z,12.20
2019-04-27T14:52:09.694Z,12.20
2019-04-27T14:54:47.771Z,12.20
2019-04-27T14:57:11.175Z,12.60
2019-04-27T14:59:40.878Z,12.80
2019-04-27T15:02:10.595Z,12.70
2019-04-27T15:04:42.406Z,12.80
2019-04-27T15:07:13.729Z,13.40
2019-04-27T15:09:45.134Z,14.00
2019-04-27T15:12:15.753Z,14.30
2019-04-27T15:14:45.744Z,14.20
2019-04-27T15:17:17.590Z,13.50
2019-04-27T15:19:54.010Z,13.30
2019-04-27T15:22:29.924Z,13.00
2019-04-27T15:25:09.250Z,12.80
2019-04-27T15:27:42.187Z,12.60
2019-04-27T15:30:17.766Z,12.30
2019-04-27T15:33:10.557Z,12.30
2019-04-27T15:35:44.072Z,12.30
2019-04-27T15:38:19.820Z,12.50
2019-04-27T15:41:08.924Z,12.80
2019-04-27T15:43:40.361Z,12.90
2019-04-27T15:46:10.270Z,13.20
2019-04-27T15:48:40.098Z,13.60
2019-04-27T15:51:17.270Z,13.80
2019-04-27T15:53:45.556Z,13.70
2019-04-27T15:56:13.095Z,13.40
2019-04-27T15:58:43.456Z,13.50
2019-04-27T16:01:13.670Z,13.70
2019-04-27T16:03:43.503Z,14.30
2019-04-27T16:06:13.697Z,14.60
2019-04-27T16:08:45.228Z,14.50
2019-04-27T16:11:19.005Z,14.00
2019-04-27T16:13:48.771Z,13.40
2019-04-27T16:16:19.282Z,13.20
2019-04-27T16:18:49.213Z,13.20
2019-04-27T16:21:20.093Z,13.60
2019-04-27T16:23:50.022Z,14.60
2019-04-27T16:26:19.875Z,15.00
2019-04-27T16:28:52.952Z,15.30
2019-04-27T16:31:24.932Z,14.80
2019-04-27T16:33:54.011Z,14.30
2019-04-27T16:36:23.903Z,13.80
2019-04-27T16:39:03.594Z,13.50
2019-04-27T16:41:37.436Z,13.20
2019-04-27T16:44:06.740Z,13.00
2019-04-27T16:46:39.424Z,12.90
2019-04-27T16:49:14.056Z,12.50
2019-04-27T16:51:40.436Z,12.20
2019-04-27T16:54:17.051Z,12.10
2019-04-27T16:56:45.553Z,11.80
2019-04-27T16:59:36.568Z,11.50
2019-04-27T17:01:46.274Z,11.40
2019-04-27T17:04:19.340Z,11.40
2019-04-27T17:06:49.605Z,11.50
2019-04-27T17:09:19.475Z,11.70
2019-04-27T17:11:50.107Z,11.70
2019-04-27T17:14:38.771Z,11.80
2019-04-27T17:17:28.227Z,11.90
2019-04-27T17:20:00.477Z,11.90
2019-04-27T17:22:30.162Z,11.80
2019-04-27T17:24:59.906Z,11.80
2019-04-27T17:27:38.249Z,11.80
2019-04-27T17:30:09.078Z,11.80
2019-04-27T17:32:54.550Z,12.50
2019-04-27T17:35:24.258Z,13.30
2019-04-27T17:37:54.423Z,13.90
2019-04-27T17:40:24.407Z,13.70
2019-04-27T17:42:55.384Z,13.30
2019-04-27T17:45:25.206Z,12.90
2019-04-27T17:48:00.398Z,12.40
2019-04-27T17:50:28.041Z,12.10
2019-04-27T17:52:59.096Z,11.90
2019-04-27T17:55:28.970Z,11.80
2019-04-27T17:58:04.959Z,11.70
2019-04-27T18:00:33.029Z,11.60
2019-04-27T18:03:02.685Z,11.50
2019-04-27T18:05:32.459Z,11.40
2019-04-27T18:08:02.319Z,11.30
2019-04-27T18:10:32.075Z,11.30
2019-04-27T18:13:01.835Z,11.30
2019-04-27T18:15:31.597Z,11.30
2019-04-27T18:18:05.761Z,11.30
2019-04-27T18:20:35.502Z,11.30
2019-04-27T18:23:15.051Z,11.30
2019-04-27T18:25:48.159Z,11.30
2019-04-27T18:28:21.900Z,11.20
2019-04-27T18:31:11.596Z,11.20
2019-04-27T18:33:42.242Z,11.20
2019-04-27T18:36:14.322Z,11.20
2019-04-27T18:38:43.574Z,11.20
2019-04-27T18:41:13.347Z,11.10
2019-04-27T18:43:50.619Z,11.20
2019-04-27T18:46:19.054Z,11.10
2019-04-27T18:49:05.346Z,11.10
2019-04-27T18:51:44.510Z,11.00
2019-04-27T18:54:14.198Z,11.00
2019-04-27T18:56:43.962Z,10.90
2019-04-27T18:59:13.731Z,10.90
2019-04-27T19:01:43.423Z,10.90
2019-04-27T19:04:13.190Z,10.90
2019-04-27T19:06:42.879Z,10.90
2019-04-27T19:09:13.153Z,10.90
2019-04-27T19:11:54.197Z,11.00
2019-04-27T19:14:14.678Z,11.00
2019-04-27T19:16:44.367Z,11.00
2019-04-27T19:19:15.386Z,10.60
2019-04-27T19:21:45.479Z,10.20
2019-04-27T19:24:15.340Z,9.90
2019-04-27T19:26:54.268Z,9.60
2019-04-27T19:29:30.259Z,9.40
2019-04-27T19:32:01.551Z,9.20
2019-04-27T19:34:32.272Z,9.10
2019-04-27T19:37:02.124Z,9.30
2019-04-27T19:39:31.830Z,9.30
2019-04-27T19:42:03.793Z,9.30
2019-04-27T19:44:33.059Z,9.30
2019-04-27T19:47:05.624Z,9.30
2019-04-27T19:49:34.255Z,9.30
2019-04-27T19:52:04.082Z,9.30
2019-04-27T19:54:34.028Z,9.40
2019-04-27T19:57:03.703Z,9.40
2019-04-27T19:59:39.318Z,9.40
2019-04-27T20:02:13.258Z,9.40
2019-04-27T20:04:44.730Z,9.50
2019-04-27T20:07:14.490Z,9.60
2019-04-27T20:09:58.507Z,9.60
2019-04-27T20:12:28.354Z,9.40
2019-04-27T20:14:58.428Z,9.20
2019-04-27T20:17:31.136Z,9.00
2019-04-27T20:20:01.872Z,8.90
2019-04-27T20:22:32.531Z,8.90
2019-04-27T20:25:02.318Z,8.80
2019-04-27T20:27:45.268Z,8.80
2019-04-27T20:30:06.275Z,8.70
2019-04-27T20:32:36.019Z,8.80
2019-04-27T20:35:07.177Z,8.70
2019-04-27T20:37:37.516Z,8.60
2019-04-27T20:40:07.963Z,8.50
2019-04-27T20:42:37.700Z,8.50
2019-04-27T20:45:07.802Z,8.50
2019-04-27T20:47:37.490Z,8.60
2019-04-27T20:50:07.339Z,8.70
2019-04-27T20:52:56.198Z,8.60
2019-04-27T20:55:26.122Z,8.40
2019-04-27T20:58:01.714Z,8.30
2019-04-27T21:00:27.307Z,8.20
2019-04-27T21:03:14.927Z,8.10
2019-04-27T21:06:03.687Z,8.10
2019-04-27T21:08:35.106Z,8.10
2019-04-27T21:11:04.940Z,8.10
2019-04-27T21:13:34.714Z,8.10
2019-04-27T21:16:04.539Z,8.20
2019-04-27T21:18:34.565Z,8.20
2019-04-27T21:21:04.407Z,8.20
2019-04-27T21:23:34.426Z,8.20
2019-04-27T21:26:04.201Z,8.20
2019-04-27T21:28:33.879Z,8.30
2019-04-27T21:31:03.573Z,8.30
2019-04-27T21:33:33.261Z,8.40
2019-04-27T21:36:02.946Z,8.60
2019-04-27T21:38:32.725Z,8.50
2019-04-27T21:41:02.483Z,8.30
2019-04-27T21:43:32.711Z,8.20
2019-04-27T21:46:02.638Z,8.10
2019-04-27T21:48:32.392Z,8.00
2019-04-27T21:51:02.086Z,7.90
2019-04-27T21:53:41.154Z,7.90
2019-04-27T21:56:11.807Z,7.90
2019-04-27T21:58:42.088Z,7.90
2019-04-27T22:01:21.626Z,7.90
2019-04-27T22:03:52.805Z,7.90
2019-04-27T22:06:22.843Z,8.00
2019-04-27T22:08:52.596Z,7.90
2019-04-27T22:11:22.422Z,7.90
2019-04-27T22:13:52.250Z,7.90
2019-04-27T22:16:21.994Z,7.90
2019-04-27T22:18:52.069Z,7.90
2019-04-27T22:21:21.861Z,7.90
2019-04-27T22:24:15.957Z,8.00
2019-04-27T22:26:45.715Z,8.00
2019-04-27T22:29:15.493Z,8.00
2019-04-27T22:31:45.318Z,8.00
2019-04-27T22:34:14.993Z,8.10
2019-04-27T22:36:44.681Z,8.10
2019-04-27T22:39:21.136Z,8.20
2019-04-27T22:42:09.925Z,8.20
2019-04-27T22:44:45.502Z,8.20
2019-04-27T22:47:15.226Z,8.20
2019-04-27T22:49:45.055Z,8.20
2019-04-27T22:52:14.734Z,8.10
2019-04-27T22:54:44.489Z,8.00
2019-04-27T22:57:31.307Z,8.00
2019-04-27T23:00:25.435Z,7.90
2019-04-27T23:03:00.614Z,8.00
2019-04-27T23:05:31.971Z,8.00
2019-04-27T23:08:01.968Z,7.90
2019-04-27T23:10:31.902Z,7.90
2019-04-27T23:13:01.678Z,7.90
2019-04-27T23:15:37.578Z,7.90
2019-04-27T23:18:07.350Z,7.70
2019-04-27T23:20:37.178Z,7.60
2019-04-27T23:23:06.874Z,7.50
2019-04-27T23:25:36.619Z,7.40
2019-04-27T23:28:06.378Z,7.20
2019-04-27T23:30:58.291Z,7.10
2019-04-27T23:33:28.058Z,7.00
2019-04-27T23:35:57.738Z,6.90
2019-04-27T23:38:27.502Z,6.80
2019-04-27T23:40:57.182Z,6.70
2019-04-27T23:43:26.907Z,6.60
2019-04-27T23:45:57.966Z,6.50
2019-04-27T23:48:27.659Z,6.50
2019-04-27T23:51:02.378Z,6.40
2019-04-27T23:53:34.066Z,6.40
2019-04-27T23:56:03.836Z,6.40
2019-04-27T23:58:33.586Z,6.40
